EDT,Max TemperatureF,Mean TemperatureF,Min TemperatureF,Max Dew PointF,MeanDew PointF,Min DewpointF,Max Humidity, Mean Humidity, Min Humidity, Max Sea Level PressureIn, Mean Sea Level PressureIn, Min Sea Level PressureIn, Max VisibilityMiles, Mean VisibilityMiles, Min VisibilityMiles, Max Wind SpeedMPH, Mean Wind SpeedMPH, Max Gust SpeedMPH,PrecipitationIn, CloudCover, Events, WindDirDegrees
2014-3-1,41,30,19,23,12,-4,81,56,30,30.24,30.15,30.08,10,8,1,18,10,24,0.05,6,Snow,263
2014-3-2,19,12,5,16,6,-4,84,68,52,30.33,30.26,30.20,10,4,0,15,7,17,0.27,7,Fog-Snow,10
2014-3-3,6,1,-4,-3,-6,-10,87,74,60,30.49,30.43,30.33,10,10,10,10,4,15,0.00,0,,316
2014-3-4,18,7,-4,6,-3,-11,72,56,40,30.46,30.36,30.26,10,10,10,10,4,13,0.00,7,,141
2014-3-5,22,17,11,11,8,3,80,66,52,30.55,30.41,30.27,10,9,3,16,9,21,T,5,Snow,35
2014-3-6,29,19,8,11,4,-6,67,47,27,30.56,30.43,30.22,10,10,10,20,9,25,0.00,0,,82
2014-3-7,47,36,25,24,18,11,72,55,37,30.20,30.07,29.92,10,10,9,22,8,28,0.00,0,,165
2014-3-8,39,31,22,31,27,17,92,76,59,30.14,30.01,29.90,10,4,0,18,7,26,0.10,7,Fog-Snow,261
2014-3-9,37,27,17,22,17,14,84,68,52,30.24,30.12,29.86,10,10,8,21,8,28,0.00,5,,235
2014-3-10,54,46,37,38,30,22,66,56,46,29.87,29.71,29.55,10,10,7,24,12,36,0.00,4,,225
2014-3-11,52,43,34,39,36,32,89,76,63,29.73,29.68,29.63,8,5,2,20,5,30,0.02,5,Rain,263
2014-3-12,40,25,10,37,24,1,92,77,61,29.89,29.59,29.33,10,2,0,40,19,55,0.87,8,Fog-Rain-Snow,26
2014-3-13,25,13,5,8,2,-5,71,62,44,30.16,30.07,29.89,10,9,2,16,11,22,0.16,3,Snow,284
2014-3-14,55,40,25,39,22,10,71,53,35,30.08,29.82,29.62,10,10,10,29,18,44,0.03,5,Rain,204
2014-3-15,45,34,23,31,26,15,82,68,53,30.23,29.94,29.68,10,10,8,24,12,36,T,8,Snow,272
2014-3-16,23,19,14,15,8,4,68,61,54,30.40,30.32,30.22,10,10,6,20,12,24,T,3,Snow,28
2014-3-17,29,20,11,14,8,0,71,60,49,30.20,30.08,29.99,10,10,10,22,12,29,0.00,0,,54
2014-3-18,44,32,20,26,21,14,77,63,49,30.09,30.05,30.00,10,10,10,24,8,32,0.00,0,,71
2014-3-19,51,44,37,45,36,22,86,67,48,29.97,29.77,29.67,10,8,3,32,20,48,0.35,6,Rain,193
2014-3-20,37,35,33,31,28,22,82,72,61,30.04,29.89,29.76,10,6,2,29,16,40,0.03,8,Snow,253
2014-3-21,43,35,27,25,20,16,75,60,44,30.13,30.04,29.81,10,10,10,26,7,36,0.00,2,,351
2014-3-22,51,41,30,37,29,24,85,64,42,30.14,29.94,29.61,10,9,5,32,10,44,0.02,8,Rain,254
2014-3-23,30,24,17,27,13,7,78,65,52,30.37,30.26,30.12,10,8,1,15,8,21,0.05,7,Snow,322
2014-3-24,27,21,14,16,11,8,80,67,54,30.37,30.27,30.12,10,9,2,15,5,21,T,5,Snow,246
2014-3-25,36,27,18,23,17,8,91,62,32,30.10,29.98,29.90,10,6,0,17,8,23,0.08,6,Fog-Snow,270
2014-3-26,21,17,12,19,8,2,73,63,52,30.36,30.24,30.03,10,9,0,17,7,23,T,5,Fog-Snow,317
2014-3-27,47,32,16,31,15,6,70,49,28,30.33,30.12,29.81,10,10,4,24,15,32,0.21,6,Rain,167
2014-3-28,57,43,29,45,36,27,92,67,41,30.20,29.90,29.70,10,9,2,31,15,45,0.25,7,Rain,231
2014-3-29,37,33,28,31,29,26,92,84,75,30.22,30.04,29.93,10,5,1,28,14,37,0.74,8,Rain-Snow,39
2014-3-30,39,34,29,30,26,21,100,80,59,30.14,30.05,29.97,10,7,1,18,9,24,0.05,5,Snow,317
2014-3-31,46,36,25,26,23,16,84,58,31,30.25,30.19,30.13,10,10,10,10,4,14,0.00,0,,302